createdAt,value
2023-09-02T00:01:14.058Z,10.15
2023-09-02T00:03:43.120Z,10.65
2023-09-02T00:06:12.084Z,11.40
2023-09-02T00:08:41.006Z,12.10
2023-09-02T00:11:11.833Z,11.52
2023-09-02T00:13:40.913Z,11.02
2023-09-02T00:16:10.101Z,11.55
2023-09-02T00:18:41.431Z,11.07
2023-09-02T00:21:10.589Z,10.85
2023-09-02T00:23:41.580Z,10.63
2023-09-02T00:26:12.157Z,10.95
2023-09-02T00:28:41.264Z,10.63
2023-09-02T00:31:10.307Z,11.18
2023-09-02T00:33:39.329Z,11.30
2023-09-02T00:36:08.678Z,11.45
2023-09-02T00:38:37.677Z,10.93
2023-09-02T00:41:09.716Z,11.40
2023-09-02T00:43:41.731Z,11.45
2023-09-02T00:46:11.872Z,12.32
2023-09-02T00:48:40.947Z,11.93
2023-09-02T00:51:10.623Z,11.52
2023-09-02T00:53:39.587Z,12.48
2023-09-02T00:56:09.210Z,11.43
2023-09-02T00:58:40.064Z,12.48
2023-09-02T01:01:09.394Z,11.40
2023-09-02T01:03:39.800Z,11.35
2023-09-02T01:06:10.506Z,12.52
2023-09-02T01:08:39.952Z,11.32
2023-09-02T01:11:08.897Z,12.18
2023-09-02T01:13:39.601Z,12.50
2023-09-02T01:16:10.760Z,12.98
2023-09-02T01:18:41.157Z,11.35
2023-09-02T01:21:42.172Z,12.20
2023-09-02T01:24:34.635Z,12.45
2023-09-02T01:27:22.715Z,12.32
2023-09-02T01:29:58.630Z,11.95
2023-09-02T01:32:35.314Z,12.00
2023-09-02T01:35:08.243Z,12.10
2023-09-02T01:37:44.168Z,12.82
2023-09-02T01:40:24.333Z,12.02
2023-09-02T01:42:59.011Z,12.32
2023-09-02T01:45:29.990Z,12.82
2023-09-02T01:48:00.348Z,12.60
2023-09-02T01:50:33.222Z,12.65
2023-09-02T01:53:02.445Z,12.70
2023-09-02T01:55:31.608Z,12.90
2023-09-02T01:58:02.656Z,12.98
2023-09-02T02:00:31.863Z,12.57
2023-09-02T02:03:01.314Z,13.23
2023-09-02T02:05:36.526Z,13.00
2023-09-02T02:08:13.145Z,13.43
2023-09-02T02:10:44.235Z,12.93
2023-09-02T02:13:15.049Z,12.43
2023-09-02T02:15:44.108Z,13.27
2023-09-02T02:18:13.149Z,13.18
2023-09-02T02:20:51.917Z,13.20
2023-09-02T02:23:20.861Z,14.02
2023-09-02T02:25:49.852Z,13.82
2023-09-02T02:28:20.702Z,13.68
2023-09-02T02:30:49.648Z,13.38
2023-09-02T02:33:19.013Z,14.52
2023-09-02T02:35:48.464Z,14.63
2023-09-02T02:38:17.613Z,13.80
2023-09-02T02:40:47.104Z,13.27
2023-09-02T02:43:16.582Z,14.63
2023-09-02T02:45:47.539Z,13.65
2023-09-02T02:48:17.549Z,12.48
2023-09-02T02:50:46.621Z,13.60
2023-09-02T02:53:15.882Z,13.15
2023-09-02T02:55:45.890Z,13.52
2023-09-02T02:58:17.700Z,13.35
2023-09-02T03:00:52.097Z,13.18
2023-09-02T03:03:22.740Z,13.18
2023-09-02T03:05:51.967Z,14.05
2023-09-02T03:08:21.008Z,13.70
2023-09-02T03:10:58.425Z,13.68
2023-09-02T03:13:27.547Z,14.05
2023-09-02T03:15:58.353Z,13.77
2023-09-02T03:18:27.487Z,13.82
2023-09-02T03:20:57.309Z,13.18
2023-09-02T03:23:26.378Z,13.65
2023-09-02T03:25:55.320Z,13.52
2023-09-02T03:28:24.296Z,13.35
2023-09-02T03:30:53.338Z,13.70
2023-09-02T03:33:23.944Z,13.50
2023-09-02T03:35:52.886Z,12.77
2023-09-02T03:38:22.067Z,13.38
2023-09-02T03:40:50.978Z,14.40
2023-09-02T03:43:20.104Z,13.73
2023-09-02T03:45:52.270Z,14.18
2023-09-02T03:48:22.992Z,13.38
2023-09-02T03:51:13.863Z,13.63
2023-09-02T03:53:43.624Z,13.80
2023-09-02T03:56:12.647Z,13.02
2023-09-02T03:58:42.135Z,13.35
2023-09-02T04:01:11.256Z,12.98
2023-09-02T04:03:42.172Z,14.23
2023-09-02T04:06:11.298Z,13.88
2023-09-02T04:08:40.225Z,14.48
2023-09-02T04:11:09.448Z,13.55
2023-09-02T04:13:38.381Z,14.13
2023-09-02T04:16:10.401Z,13.88
2023-09-02T04:18:41.148Z,13.32
2023-09-02T04:21:12.978Z,14.32
2023-09-02T04:23:43.651Z,14.43
2023-09-02T04:26:12.659Z,13.48
2023-09-02T04:28:41.668Z,13.90
2023-09-02T04:31:10.582Z,13.95
2023-09-02T04:33:41.319Z,13.70
2023-09-02T04:36:10.322Z,14.68
2023-09-02T04:38:39.445Z,14.00
2023-09-02T04:41:08.821Z,14.52
2023-09-02T04:43:40.047Z,13.43
2023-09-02T04:46:09.752Z,14.48
2023-09-02T04:48:38.796Z,14.00
2023-09-02T04:51:10.252Z,14.02
2023-09-02T04:53:39.218Z,15.25
2023-09-02T04:56:08.453Z,14.25
2023-09-02T04:58:37.498Z,14.63
2023-09-02T05:01:14.054Z,13.88
2023-09-02T05:03:43.205Z,14.57
2023-09-02T05:06:14.711Z,15.10
2023-09-02T05:08:43.734Z,14.90
2023-09-02T05:11:12.705Z,15.18
2023-09-02T05:13:42.263Z,14.93
2023-09-02T05:16:11.352Z,14.20
2023-09-02T05:18:40.337Z,14.98
2023-09-02T05:21:09.295Z,14.00
2023-09-02T05:23:39.980Z,13.63
2023-09-02T05:26:08.922Z,14.40
2023-09-02T05:28:37.884Z,14.55
2023-09-02T05:31:06.919Z,14.30
2023-09-02T05:33:36.174Z,14.95
2023-09-02T05:36:05.330Z,14.45
2023-09-02T05:38:34.310Z,14.80
2023-09-02T05:41:04.900Z,14.50
2023-09-02T05:43:33.972Z,14.02
2023-09-02T05:46:05.146Z,14.60
2023-09-02T05:48:34.640Z,14.07
2023-09-02T05:51:03.611Z,14.55
2023-09-02T05:53:32.648Z,14.30
2023-09-02T05:56:01.700Z,14.55
2023-09-02T05:58:32.318Z,14.73
2023-09-02T06:01:06.053Z,14.27
2023-09-02T06:03:35.126Z,14.05
2023-09-02T06:06:10.225Z,14.05
2023-09-02T06:08:39.210Z,14.65
2023-09-02T06:11:08.735Z,14.13
2023-09-02T06:13:39.541Z,14.13
2023-09-02T06:16:09.021Z,13.73
2023-09-02T06:18:38.334Z,14.07
2023-09-02T06:21:14.941Z,14.05
2023-09-02T06:23:45.283Z,13.57
2023-09-02T06:26:15.285Z,13.57
2023-09-02T06:28:46.022Z,12.57
2023-09-02T06:31:15.283Z,13.13
2023-09-02T06:33:44.257Z,13.55
2023-09-02T06:36:14.262Z,13.20
2023-09-02T06:38:43.292Z,13.15
2023-09-02T06:41:12.902Z,13.45
2023-09-02T06:43:42.260Z,13.30
2023-09-02T06:46:14.339Z,12.70
2023-09-02T06:48:43.522Z,12.65
2023-09-02T06:51:12.773Z,12.63
2023-09-02T06:53:41.879Z,11.80
2023-09-02T06:56:11.544Z,12.57
2023-09-02T06:58:41.521Z,12.05
2023-09-02T07:01:20.069Z,12.60
2023-09-02T07:03:49.127Z,13.23
2023-09-02T07:06:18.190Z,13.00
2023-09-02T07:08:47.608Z,12.20
2023-09-02T07:11:17.217Z,12.02
2023-09-02T07:13:47.887Z,13.75
2023-09-02T07:16:18.622Z,12.45
2023-09-02T07:18:47.791Z,12.95
2023-09-02T07:21:23.757Z,11.90
2023-09-02T07:23:55.545Z,12.57
2023-09-02T07:26:29.376Z,13.27
2023-09-02T07:28:58.323Z,11.63
2023-09-02T07:31:29.078Z,12.63
2023-09-02T07:33:58.332Z,12.90
2023-09-02T07:36:27.375Z,12.82
2023-09-02T07:38:56.330Z,12.68
2023-09-02T07:41:25.308Z,12.52
2023-09-02T07:43:54.378Z,12.15
2023-09-02T07:46:23.587Z,12.43
2023-09-02T07:48:54.175Z,12.40
2023-09-02T07:51:23.157Z,11.75
2023-09-02T07:53:52.082Z,12.50
2023-09-02T07:56:21.063Z,13.05
2023-09-02T07:58:51.077Z,11.68
2023-09-02T08:01:21.837Z,12.30
2023-09-02T08:03:52.694Z,13.07
2023-09-02T08:06:21.686Z,12.48
2023-09-02T08:08:50.627Z,11.93
2023-09-02T08:11:20.698Z,12.73
2023-09-02T08:13:49.708Z,11.90
2023-09-02T08:16:18.876Z,12.32
2023-09-02T08:18:47.992Z,11.43
2023-09-02T08:21:18.657Z,11.40
2023-09-02T08:23:47.631Z,12.38
2023-09-02T08:26:16.980Z,12.30
2023-09-02T08:28:46.838Z,13.23
2023-09-02T08:31:20.558Z,12.25
2023-09-02T08:33:50.414Z,11.40
2023-09-02T08:36:21.259Z,12.32
2023-09-02T08:38:50.289Z,12.18
2023-09-02T08:41:27.476Z,13.57
2023-09-02T08:43:57.475Z,15.52
2023-09-02T08:46:31.161Z,14.57
2023-09-02T08:49:00.666Z,15.55
2023-09-02T08:51:32.225Z,15.80
2023-09-02T08:54:01.798Z,15.20
2023-09-02T08:56:31.781Z,15.65
2023-09-02T08:59:00.827Z,16.05
2023-09-02T09:01:32.861Z,15.95
2023-09-02T09:04:04.242Z,15.68
2023-09-02T09:06:39.191Z,15.23
2023-09-02T09:09:11.116Z,15.37
2023-09-02T09:11:43.713Z,15.65
2023-09-02T09:14:19.136Z,15.18
2023-09-02T09:16:50.569Z,13.68
2023-09-02T09:19:20.353Z,15.85
2023-09-02T09:21:51.053Z,15.02
2023-09-02T09:24:19.987Z,15.07
2023-09-02T09:26:50.067Z,15.00
2023-09-02T09:29:20.122Z,14.95
2023-09-02T09:31:49.289Z,14.30
2023-09-02T09:34:18.364Z,14.63
2023-09-02T09:37:00.982Z,14.52
2023-09-02T09:39:41.636Z,14.70
2023-09-02T09:42:12.319Z,14.23
2023-09-02T09:44:56.559Z,14.35
2023-09-02T09:47:26.917Z,14.18
2023-09-02T09:50:08.215Z,14.90
2023-09-02T09:52:38.880Z,13.38
2023-09-02T09:55:10.028Z,13.43
2023-09-02T09:57:40.647Z,12.27
2023-09-02T10:00:16.834Z,12.70
2023-09-02T10:02:53.083Z,12.75
2023-09-02T10:05:29.699Z,11.95
2023-09-02T10:08:05.718Z,13.18
2023-09-02T10:10:37.224Z,11.85
2023-09-02T10:13:07.062Z,12.30
2023-09-02T10:15:36.133Z,11.70
2023-09-02T10:18:06.306Z,12.57
2023-09-02T10:20:37.400Z,12.52
2023-09-02T10:23:09.166Z,12.48
2023-09-02T10:25:47.226Z,12.30
2023-09-02T10:28:22.911Z,12.20
2023-09-02T10:30:54.155Z,12.38
2023-09-02T10:33:34.100Z,11.73
2023-09-02T10:36:07.497Z,13.43
2023-09-02T10:38:43.212Z,12.63
2023-09-02T10:41:15.334Z,12.40
2023-09-02T10:43:45.249Z,12.32
2023-09-02T10:46:14.467Z,13.25
2023-09-02T10:48:46.970Z,12.48
2023-09-02T10:51:17.144Z,13.30
2023-09-02T10:54:04.266Z,12.63
2023-09-02T10:56:34.565Z,13.38
2023-09-02T10:59:04.814Z,12.32
2023-09-02T11:01:47.125Z,12.88
2023-09-02T11:04:18.544Z,12.48
2023-09-02T11:07:24.370Z,12.98
2023-09-02T11:09:56.365Z,11.98
2023-09-02T11:12:26.047Z,12.60
2023-09-02T11:15:20.327Z,11.60
2023-09-02T11:17:49.442Z,11.55
2023-09-02T11:20:21.193Z,11.52
2023-09-02T11:22:52.724Z,11.77
2023-09-02T11:25:34.076Z,11.18
2023-09-02T11:28:04.131Z,11.18
2023-09-02T11:30:35.457Z,11.55
2023-09-02T11:33:04.976Z,10.63
2023-09-02T11:35:35.204Z,11.13
2023-09-02T11:38:04.981Z,11.93
2023-09-02T11:40:35.625Z,12.05
2023-09-02T11:43:04.820Z,12.05
2023-09-02T11:45:35.302Z,12.45
2023-09-02T11:48:05.666Z,12.68
2023-09-02T11:50:34.725Z,12.32
2023-09-02T11:53:07.677Z,12.88
2023-09-02T11:55:41.049Z,13.00
2023-09-02T11:58:21.026Z,12.52
2023-09-02T12:00:50.090Z,12.32
2023-09-02T12:03:26.093Z,11.77
2023-09-02T12:05:58.087Z,12.40
2023-09-02T12:08:27.875Z,12.00
2023-09-02T12:10:56.883Z,12.07
2023-09-02T12:13:30.652Z,12.80
2023-09-02T12:15:59.852Z,11.52
2023-09-02T12:18:29.714Z,11.80
2023-09-02T12:20:59.602Z,11.98
2023-09-02T12:23:28.737Z,12.52
2023-09-02T12:26:06.874Z,12.70
2023-09-02T12:28:37.708Z,12.40
2023-09-02T12:31:06.795Z,12.25
2023-09-02T12:33:39.114Z,11.10
2023-09-02T12:36:08.712Z,11.95
2023-09-02T12:38:50.999Z,11.82
2023-09-02T12:41:20.107Z,12.60
2023-09-02T12:43:50.778Z,11.68
2023-09-02T12:46:23.856Z,12.45
2023-09-02T12:48:53.004Z,12.25
2023-09-02T12:51:30.067Z,12.68
2023-09-02T12:54:01.348Z,11.70
2023-09-02T12:56:30.426Z,12.35
2023-09-02T12:59:00.999Z,12.20
2023-09-02T13:01:31.241Z,12.13
2023-09-02T13:04:01.387Z,12.80
2023-09-02T13:06:32.382Z,11.77
2023-09-02T13:09:01.441Z,12.00
2023-09-02T13:11:30.543Z,11.73
2023-09-02T13:14:01.302Z,12.48
2023-09-02T13:16:30.759Z,12.60
2023-09-02T13:18:59.899Z,12.45
2023-09-02T13:21:28.996Z,12.45
2023-09-02T13:24:00.179Z,12.30
2023-09-02T13:26:29.241Z,13.00
2023-09-02T13:29:03.627Z,12.65
2023-09-02T13:31:33.501Z,11.68
2023-09-02T13:34:05.762Z,12.05
2023-09-02T13:36:35.939Z,12.38
2023-09-02T13:39:05.220Z,12.32
2023-09-02T13:41:34.216Z,12.70
2023-09-02T13:44:04.998Z,12.15
2023-09-02T13:46:34.126Z,12.30
2023-09-02T13:49:03.112Z,11.95
2023-09-02T13:51:32.095Z,12.25
2023-09-02T13:54:01.359Z,11.50
2023-09-02T13:56:30.391Z,12.43
2023-09-02T13:59:04.162Z,12.50
2023-09-02T14:01:33.469Z,11.85
2023-09-02T14:04:03.791Z,11.40
2023-09-02T14:06:32.844Z,11.77
2023-09-02T14:09:03.877Z,11.82
2023-09-02T14:11:33.774Z,12.38
2023-09-02T14:14:04.728Z,12.30
2023-09-02T14:16:33.700Z,12.30
2023-09-02T14:19:02.688Z,12.20
2023-09-02T14:21:31.610Z,11.43
2023-09-02T14:24:00.962Z,11.45
2023-09-02T14:26:32.071Z,12.40
2023-09-02T14:29:01.193Z,10.95
2023-09-02T14:31:33.416Z,11.95
2023-09-02T14:34:02.437Z,12.10
2023-09-02T14:36:31.498Z,12.23
2023-09-02T14:39:00.416Z,11.23
2023-09-02T14:41:29.400Z,11.48
2023-09-02T14:43:58.362Z,10.77
2023-09-02T14:46:28.567Z,12.30
2023-09-02T14:49:00.135Z,11.32
2023-09-02T14:51:29.081Z,11.45
2023-09-02T14:53:58.124Z,11.85
2023-09-02T14:56:27.360Z,11.13
2023-09-02T14:58:56.454Z,11.15
2023-09-02T15:01:25.600Z,11.93
2023-09-02T15:03:54.657Z,12.23
2023-09-02T15:06:25.485Z,11.77
2023-09-02T15:08:54.440Z,11.52
2023-09-02T15:11:23.906Z,12.68
2023-09-02T15:13:55.184Z,11.55
2023-09-02T15:16:24.365Z,11.82
2023-09-02T15:18:53.342Z,12.30
2023-09-02T15:21:22.561Z,12.15
2023-09-02T15:23:53.218Z,12.23
2023-09-02T15:26:22.258Z,12.50
2023-09-02T15:28:51.293Z,12.30
2023-09-02T15:31:20.398Z,12.82
2023-09-02T15:33:49.599Z,13.38
2023-09-02T15:36:21.487Z,12.82
2023-09-02T15:38:52.535Z,12.55
2023-09-02T15:41:21.494Z,12.40
2023-09-02T15:43:54.760Z,12.82
2023-09-02T15:46:24.180Z,12.30
2023-09-02T15:48:53.180Z,11.77
2023-09-02T15:51:22.195Z,11.13
2023-09-02T15:53:52.828Z,11.40
2023-09-02T15:56:21.830Z,11.27
2023-09-02T15:58:50.790Z,10.93
2023-09-02T16:01:19.867Z,10.68
2023-09-02T16:03:48.970Z,9.73
2023-09-02T16:06:18.038Z,10.35
2023-09-02T16:08:46.966Z,10.50
2023-09-02T16:11:17.594Z,10.43
2023-09-02T16:13:46.567Z,10.25
2023-09-02T16:16:15.627Z,10.23
2023-09-02T16:18:44.612Z,10.95
2023-09-02T16:21:13.657Z,11.27
2023-09-02T16:23:42.652Z,11.05
2023-09-02T16:26:11.823Z,10.57
2023-09-02T16:28:44.762Z,10.18
2023-09-02T16:31:13.797Z,10.73
2023-09-02T16:33:42.845Z,11.75
2023-09-02T16:36:12.084Z,11.15
2023-09-02T16:38:41.132Z,11.43
2023-09-02T16:41:10.307Z,10.30
2023-09-02T16:43:39.340Z,9.65
2023-09-02T16:46:11.682Z,9.13
2023-09-02T16:48:41.309Z,9.25
2023-09-02T16:51:11.029Z,10.00
2023-09-02T16:53:40.186Z,9.88
2023-09-02T16:56:09.380Z,10.88
2023-09-02T16:58:38.376Z,9.80
2023-09-02T17:01:10.265Z,10.48
2023-09-02T17:03:39.354Z,11.80
2023-09-02T17:06:09.031Z,11.13
2023-09-02T17:08:38.771Z,11.35
2023-09-02T17:11:07.841Z,11.30
2023-09-02T17:13:37.391Z,11.85
2023-09-02T17:16:11.371Z,11.20
2023-09-02T17:18:42.039Z,11.85
2023-09-02T17:21:15.150Z,11.05
2023-09-02T17:23:49.133Z,10.88
2023-09-02T17:26:18.149Z,11.05
2023-09-02T17:28:50.211Z,11.38
2023-09-02T17:31:20.965Z,10.32
2023-09-02T17:33:50.837Z,10.38
2023-09-02T17:36:19.947Z,10.35
2023-09-02T17:38:51.869Z,9.68
2023-09-02T17:41:20.918Z,9.90
2023-09-02T17:43:52.758Z,8.15
2023-09-02T17:46:23.813Z,7.97
2023-09-02T17:48:52.900Z,7.82
2023-09-02T17:51:21.855Z,8.05
2023-09-02T17:53:50.865Z,7.97
2023-09-02T17:56:20.343Z,7.85
2023-09-02T17:58:50.164Z,7.57
2023-09-02T18:01:19.250Z,7.35
2023-09-02T18:03:49.956Z,7.68
2023-09-02T18:06:19.024Z,7.45
2023-09-02T18:08:58.132Z,8.15
2023-09-02T18:11:28.095Z,7.65
2023-09-02T18:13:57.036Z,7.65
2023-09-02T18:16:27.725Z,7.53
2023-09-02T18:18:58.448Z,8.10
2023-09-02T18:21:27.437Z,8.00
2023-09-02T18:23:56.463Z,7.65
2023-09-02T18:26:25.837Z,7.47
2023-09-02T18:28:54.854Z,7.70
2023-09-02T18:31:24.373Z,7.60
2023-09-02T18:33:54.527Z,7.40
2023-09-02T18:36:25.909Z,7.10
2023-09-02T18:38:55.342Z,7.05
2023-09-02T18:41:25.694Z,7.20
2023-09-02T18:43:54.657Z,7.35
2023-09-02T18:46:24.454Z,6.78
2023-09-02T18:48:53.388Z,6.65
2023-09-02T18:51:23.970Z,6.97
2023-09-02T18:53:52.995Z,7.00
2023-09-02T18:56:22.040Z,7.53
2023-09-02T18:58:51.018Z,6.57
2023-09-02T19:01:20.185Z,6.75
2023-09-02T19:03:49.211Z,6.45
2023-09-02T19:06:18.165Z,6.18
2023-09-02T19:08:48.826Z,5.80
2023-09-02T19:11:19.460Z,5.80
2023-09-02T19:13:48.397Z,5.25
2023-09-02T19:16:17.463Z,5.07
2023-09-02T19:18:46.810Z,4.60
2023-09-02T19:24:10.289Z,5.28
2023-09-02T19:26:39.349Z,5.10
2023-09-02T19:29:08.435Z,5.65
2023-09-02T19:31:37.435Z,4.80
2023-09-02T19:34:06.472Z,5.07
2023-09-02T19:36:35.397Z,4.90
2023-09-02T19:39:17.802Z,5.22
2023-09-02T19:41:46.874Z,4.90
2023-09-02T19:44:16.746Z,4.45
2023-09-02T19:46:47.845Z,4.28
2023-09-02T19:49:24.166Z,4.50
2023-09-02T19:51:53.253Z,4.10
2023-09-02T19:54:23.964Z,4.95
2023-09-02T19:56:53.042Z,4.55
2023-09-02T19:59:22.034Z,4.38
2023-09-02T20:01:52.043Z,4.50
2023-09-02T20:04:21.154Z,4.78
2023-09-02T20:06:50.178Z,4.88
2023-09-02T20:09:19.287Z,4.60
2023-09-02T20:11:49.901Z,4.85
2023-09-02T20:14:18.857Z,4.45
2023-09-02T20:16:47.929Z,4.40
2023-09-02T20:19:17.358Z,4.20
2023-09-02T20:21:46.383Z,4.30
2023-09-02T20:24:15.299Z,4.28
2023-09-02T20:26:44.340Z,4.15
2023-09-02T20:29:15.064Z,4.13
2023-09-02T20:31:44.009Z,4.40
2023-09-02T20:34:12.973Z,4.00
2023-09-02T20:36:41.913Z,4.35
2023-09-02T20:39:11.424Z,3.80
2023-09-02T20:41:41.335Z,3.25
2023-09-02T20:44:10.881Z,3.85
2023-09-02T20:46:41.510Z,3.55
2023-09-02T20:49:10.461Z,3.95
2023-09-02T20:51:39.416Z,3.50
2023-09-02T20:54:09.042Z,3.40
2023-09-02T20:56:38.439Z,3.40
2023-09-02T20:59:07.545Z,2.90
2023-09-02T21:01:36.595Z,3.20
2023-09-02T21:04:07.766Z,3.45
2023-09-02T21:06:36.797Z,3.20
2023-09-02T21:09:06.230Z,3.00
2023-09-02T21:11:35.281Z,3.10
2023-09-02T21:14:04.275Z,2.97
2023-09-02T21:16:33.238Z,3.10
2023-09-02T21:19:02.286Z,3.08
2023-09-02T21:21:32.884Z,3.22
2023-09-02T21:24:05.087Z,2.92
2023-09-02T21:26:34.111Z,3.13
2023-09-02T21:29:03.041Z,3.28
2023-09-02T21:31:32.006Z,3.38
2023-09-02T21:34:00.963Z,3.55
2023-09-02T21:36:31.867Z,3.55
2023-09-02T21:39:00.848Z,3.40
2023-09-02T21:41:29.895Z,3.58
2023-09-02T21:44:00.067Z,3.38
2023-09-02T21:46:29.244Z,3.75
2023-09-02T21:48:58.215Z,3.13
2023-09-02T21:51:27.188Z,3.10
2023-09-02T21:53:58.987Z,3.40
2023-09-02T21:56:28.003Z,3.38
2023-09-02T21:58:56.946Z,3.58
2023-09-02T22:01:27.079Z,3.70
2023-09-02T22:03:56.787Z,3.38
2023-09-02T22:06:25.832Z,3.30
2023-09-02T22:08:55.046Z,3.42
2023-09-02T22:11:25.597Z,3.10
2023-09-02T22:13:54.544Z,3.53
2023-09-02T22:16:23.536Z,3.10
2023-09-02T22:19:04.107Z,3.30
2023-09-02T22:21:37.264Z,3.38
2023-09-02T22:24:06.793Z,3.50
2023-09-02T22:26:37.459Z,3.15
2023-09-02T22:29:06.568Z,3.22
2023-09-02T22:31:35.716Z,2.97
2023-09-02T22:34:04.772Z,3.42
2023-09-02T22:36:33.754Z,2.95
2023-09-02T22:39:02.715Z,3.47
2023-09-02T22:41:31.709Z,3.22
2023-09-02T22:44:02.306Z,3.13
2023-09-02T22:46:31.266Z,3.10
2023-09-02T22:49:00.324Z,3.38
2023-09-02T22:51:29.472Z,3.05
2023-09-02T22:53:58.463Z,3.80
2023-09-02T22:56:27.435Z,3.25
2023-09-02T22:58:56.369Z,3.30
2023-09-02T23:01:26.996Z,3.40
2023-09-02T23:03:56.337Z,3.30
2023-09-02T23:06:25.297Z,3.25
2023-09-02T23:08:54.366Z,3.22
2023-09-02T23:11:23.322Z,3.10
2023-09-02T23:13:52.310Z,3.35
2023-09-02T23:16:21.435Z,3.63
2023-09-02T23:18:52.115Z,3.20
2023-09-02T23:21:21.139Z,3.20
2023-09-02T23:23:50.847Z,3.03
2023-09-02T23:26:20.631Z,3.28
2023-09-02T23:28:51.067Z,3.30
2023-09-02T23:31:20.260Z,3.08
2023-09-02T23:33:51.277Z,3.30
2023-09-02T23:36:20.279Z,3.35
2023-09-02T23:38:49.276Z,3.40
2023-09-02T23:41:18.379Z,3.22
2023-09-02T23:43:48.137Z,3.30
2023-09-02T23:46:17.621Z,3.60
2023-09-02T23:48:46.668Z,3.75
2023-09-02T23:51:17.261Z,3.88
2023-09-02T23:53:46.204Z,3.60
2023-09-02T23:56:15.964Z,3.70
2023-09-02T23:58:44.939Z,3.40
